createdAt,value
2017-10-08T05:03:04.907Z,2
2017-10-08T05:08:05.273Z,5
2017-10-08T05:09:34.594Z,8
2017-10-08T05:10:34.570Z,10
2017-10-08T05:12:05.576Z,13
2017-10-08T05:13:05.616Z,15
2017-10-08T05:13:34.797Z,17
2017-10-08T05:14:34.843Z,20
2017-10-08T05:15:05.712Z,22
2017-10-08T05:15:34.905Z,25
2017-10-08T05:16:05.818Z,28
2017-10-08T05:18:05.933Z,25
2017-10-08T05:19:05.986Z,28
2017-10-08T05:20:06.063Z,32
2017-10-08T05:20:35.291Z,43
2017-10-08T05:21:35.359Z,40
2017-10-08T05:23:06.251Z,45
2017-10-08T05:23:35.484Z,50
2017-10-08T05:24:06.341Z,55
2017-10-08T05:24:35.573Z,60
2017-10-08T05:25:06.434Z,65
2017-10-08T05:25:35.658Z,75
2017-10-08T05:26:06.498Z,88
2017-10-08T05:26:35.786Z,100
2017-10-08T05:27:06.562Z,103
2017-10-08T05:27:35.724Z,112
2017-10-08T05:28:06.655Z,133
2017-10-08T05:28:35.840Z,145
2017-10-08T05:29:06.643Z,160
2017-10-08T05:29:35.857Z,175
2017-10-08T05:30:06.722Z,182
2017-10-08T05:30:35.925Z,190
2017-10-08T05:31:06.834Z,200
2017-10-08T05:31:36.031Z,205
2017-10-08T05:32:06.912Z,210
2017-10-08T05:32:36.057Z,220
2017-10-08T05:33:06.946Z,227
2017-10-08T05:33:36.104Z,235
2017-10-08T05:34:07.018Z,240
2017-10-08T05:34:36.214Z,242
2017-10-08T05:35:07.047Z,238
2017-10-08T05:36:07.179Z,235
2017-10-08T05:36:36.409Z,223
2017-10-08T05:37:07.223Z,220
2017-10-08T05:37:36.442Z,240
2017-10-08T05:38:07.293Z,255
2017-10-08T05:38:36.477Z,268
2017-10-08T05:39:07.374Z,280
2017-10-08T05:39:36.573Z,293
2017-10-08T05:40:07.395Z,310
2017-10-08T05:40:36.656Z,335
2017-10-08T05:41:07.509Z,347
2017-10-08T05:42:07.627Z,373
2017-10-08T05:42:36.762Z,403
2017-10-08T05:43:07.591Z,422
2017-10-08T05:43:36.844Z,448
2017-10-08T05:44:07.659Z,463
2017-10-08T05:44:37.438Z,497
2017-10-08T05:45:07.738Z,517
2017-10-08T05:45:37.016Z,503
2017-10-08T05:46:07.791Z,515
2017-10-08T05:46:37.053Z,535
2017-10-08T05:47:07.919Z,527
2017-10-08T05:47:37.128Z,535
2017-10-08T05:48:07.935Z,510
2017-10-08T05:48:37.159Z,480
2017-10-08T05:49:07.985Z,445
2017-10-08T05:49:37.232Z,463
2017-10-08T05:50:08.072Z,478
2017-10-08T05:50:37.329Z,565
2017-10-08T05:51:08.116Z,587
2017-10-08T05:51:37.381Z,630
2017-10-08T05:52:08.225Z,667
2017-10-08T05:52:37.457Z,700
2017-10-08T05:53:08.322Z,728
2017-10-08T05:53:37.475Z,740
2017-10-08T05:54:08.342Z,728
2017-10-08T05:54:37.560Z,722
2017-10-08T05:55:08.446Z,728
2017-10-08T05:55:37.638Z,750
2017-10-08T05:56:08.478Z,752
2017-10-08T05:56:37.725Z,755
2017-10-08T05:57:08.626Z,780
2017-10-08T05:58:08.649Z,735
2017-10-08T05:58:37.798Z,698
2017-10-08T05:59:08.660Z,660
2017-10-08T05:59:37.887Z,620
2017-10-08T06:00:08.740Z,555
2017-10-08T06:00:37.938Z,535
2017-10-08T06:01:08.800Z,580
2017-10-08T06:01:37.995Z,575
2017-10-08T06:02:08.927Z,503
2017-10-08T06:02:38.071Z,517
2017-10-08T06:03:08.930Z,580
2017-10-08T06:03:38.141Z,560
2017-10-08T06:04:08.993Z,550
2017-10-08T06:04:38.243Z,480
2017-10-08T06:05:09.101Z,365
2017-10-08T06:05:38.275Z,343
2017-10-08T06:06:09.118Z,350
2017-10-08T06:06:38.337Z,315
2017-10-08T06:07:09.280Z,343
2017-10-08T06:08:09.252Z,352
2017-10-08T06:08:38.505Z,370
2017-10-08T06:09:09.369Z,322
2017-10-08T06:09:38.591Z,300
2017-10-08T06:10:09.470Z,358
2017-10-08T06:10:38.589Z,435
2017-10-08T06:11:09.473Z,437
2017-10-08T06:11:38.688Z,398
2017-10-08T06:12:09.570Z,420
2017-10-08T06:12:38.787Z,493
2017-10-08T06:13:09.651Z,542
2017-10-08T06:13:38.836Z,505
2017-10-08T06:14:09.720Z,452
2017-10-08T06:14:38.869Z,430
2017-10-08T06:15:09.766Z,442
2017-10-08T06:15:38.932Z,440
2017-10-08T06:16:09.859Z,428
2017-10-08T06:16:38.997Z,425
2017-10-08T06:17:09.927Z,392
2017-10-08T06:17:39.120Z,418
2017-10-08T06:18:09.965Z,425
2017-10-08T06:18:39.140Z,460
2017-10-08T06:19:10.128Z,538
2017-10-08T06:19:39.265Z,610
2017-10-08T06:20:10.132Z,675
2017-10-08T06:20:39.419Z,748
2017-10-08T06:21:10.183Z,785
2017-10-08T06:21:39.384Z,830
2017-10-08T06:22:10.236Z,910
2017-10-08T06:22:39.519Z,967
2017-10-08T06:23:10.307Z,1025
2017-10-08T06:23:39.493Z,1042
2017-10-08T06:24:10.328Z,1130
2017-10-08T06:24:39.568Z,1243
2017-10-08T06:25:10.445Z,1348
2017-10-08T06:25:39.680Z,1405
2017-10-08T06:26:10.508Z,1435
2017-10-08T06:26:39.664Z,1465
2017-10-08T06:27:10.593Z,1655
2017-10-08T06:27:39.782Z,1792
2017-10-08T06:28:10.594Z,2050
2017-10-08T06:28:39.805Z,2000
2017-10-08T06:29:10.665Z,1858
2017-10-08T06:29:39.911Z,1907
2017-10-08T06:30:10.737Z,1858
2017-10-08T06:30:40.085Z,1942
2017-10-08T06:31:10.799Z,2188
2017-10-08T06:31:39.999Z,1958
2017-10-08T06:32:10.873Z,1652
2017-10-08T06:32:40.206Z,1185
2017-10-08T06:33:10.972Z,1067
2017-10-08T06:33:40.184Z,1145
2017-10-08T06:34:11.002Z,1010
2017-10-08T06:34:40.268Z,1055
2017-10-08T06:35:11.070Z,1115
2017-10-08T06:35:40.330Z,1142
2017-10-08T06:36:11.141Z,1123
2017-10-08T06:36:40.334Z,1175
2017-10-08T06:37:11.267Z,1165
2017-10-08T06:37:40.456Z,1085
2017-10-08T06:38:11.324Z,1093
2017-10-08T06:38:40.460Z,1180
2017-10-08T06:39:11.334Z,1367
2017-10-08T06:39:40.535Z,1508
2017-10-08T06:40:11.393Z,1778
2017-10-08T06:40:40.657Z,1993
2017-10-08T06:41:11.469Z,1705
2017-10-08T06:41:40.649Z,1530
2017-10-08T06:42:11.595Z,1525
2017-10-08T06:42:40.776Z,1430
2017-10-08T06:43:11.633Z,1145
2017-10-08T06:43:40.786Z,985
2017-10-08T06:44:11.656Z,857
2017-10-08T06:44:40.862Z,733
2017-10-08T06:45:11.730Z,615
2017-10-08T06:45:40.970Z,602
2017-10-08T06:46:11.842Z,505
2017-10-08T06:46:41.028Z,430
2017-10-08T06:47:11.867Z,550
2017-10-08T06:47:41.183Z,905
2017-10-08T06:48:11.940Z,1018
2017-10-08T06:48:41.171Z,1048
2017-10-08T06:49:11.998Z,1025
2017-10-08T06:49:41.253Z,1022
2017-10-08T06:50:12.148Z,1075
2017-10-08T06:50:41.347Z,1037
2017-10-08T06:51:12.146Z,998
2017-10-08T06:51:41.357Z,980
2017-10-08T06:52:12.237Z,975
2017-10-08T06:52:41.482Z,1022
2017-10-08T06:53:12.336Z,1055
2017-10-08T06:53:41.520Z,1050
2017-10-08T06:54:12.335Z,1020
2017-10-08T06:54:41.553Z,973
2017-10-08T06:55:12.392Z,952
2017-10-08T06:55:41.626Z,960
2017-10-08T06:56:12.511Z,935
2017-10-08T06:56:41.664Z,908
2017-10-08T06:57:12.625Z,870
2017-10-08T06:57:41.833Z,845
2017-10-08T06:58:12.665Z,900
2017-10-08T06:58:41.833Z,943
2017-10-08T06:59:12.726Z,917
2017-10-08T06:59:41.937Z,905
2017-10-08T07:00:12.793Z,908
2017-10-08T07:00:41.996Z,898
2017-10-08T07:01:12.833Z,875
2017-10-08T07:01:42.079Z,913
2017-10-08T07:02:12.894Z,1065
2017-10-08T07:02:42.102Z,1223
2017-10-08T07:03:12.974Z,1265
2017-10-08T07:03:42.129Z,1252
2017-10-08T07:04:13.059Z,1240
2017-10-08T07:04:42.225Z,1223
2017-10-08T07:05:13.131Z,1252
2017-10-08T07:05:42.268Z,1280
2017-10-08T07:06:13.180Z,1217
2017-10-08T07:06:42.355Z,1165
2017-10-08T07:07:13.269Z,1180
2017-10-08T07:07:42.558Z,1255
2017-10-08T07:08:13.316Z,1328
2017-10-08T07:08:42.510Z,1472
2017-10-08T07:09:13.370Z,1652
2017-10-08T07:09:42.597Z,1802
2017-10-08T07:10:13.416Z,1963
2017-10-08T07:10:42.650Z,2137
2017-10-08T07:11:13.514Z,2265
2017-10-08T07:11:42.729Z,2417
2017-10-08T07:12:13.574Z,2615
2017-10-08T07:12:42.854Z,2807
2017-10-08T07:13:13.603Z,3107
2017-10-08T07:13:42.845Z,3472
2017-10-08T07:14:13.709Z,3697
2017-10-08T07:14:42.915Z,3770
2017-10-08T07:15:13.754Z,3835
2017-10-08T07:15:43.028Z,3800
2017-10-08T07:16:13.799Z,3640
2017-10-08T07:16:43.061Z,3435
2017-10-08T07:17:13.953Z,3295
2017-10-08T07:17:43.202Z,3182
2017-10-08T07:18:13.956Z,3085
2017-10-08T07:18:43.121Z,3000
2017-10-08T07:19:13.983Z,2897
2017-10-08T07:19:43.220Z,2837
2017-10-08T07:20:14.057Z,2873
2017-10-08T07:20:43.352Z,3008
2017-10-08T07:21:14.118Z,3180
2017-10-08T07:21:43.327Z,3315
2017-10-08T07:22:14.179Z,3400
2017-10-08T07:22:43.474Z,3455
2017-10-08T07:23:14.288Z,3542
2017-10-08T07:23:43.521Z,3700
2017-10-08T07:24:14.370Z,3962
2017-10-08T07:24:43.606Z,4298
2017-10-08T07:25:14.411Z,4615
2017-10-08T07:25:43.592Z,4847
2017-10-08T07:26:14.513Z,4942
2017-10-08T07:26:43.659Z,4847
2017-10-08T07:27:14.555Z,4538
2017-10-08T07:27:43.734Z,4140
2017-10-08T07:28:14.592Z,3770
2017-10-08T07:28:43.857Z,3437
2017-10-08T07:29:14.702Z,3148
2017-10-08T07:29:43.871Z,2960
2017-10-08T07:30:14.744Z,2910
2017-10-08T07:30:44.013Z,2925
2017-10-08T07:31:14.812Z,2942
2017-10-08T07:31:44.027Z,2987
2017-10-08T07:32:14.880Z,3060
2017-10-08T07:32:44.094Z,3112
2017-10-08T07:33:15.005Z,3190
2017-10-08T07:33:44.176Z,3405
2017-10-08T07:34:15.007Z,3758
2017-10-08T07:34:44.340Z,4057
2017-10-08T07:35:15.080Z,4165
2017-10-08T07:35:44.273Z,4037
2017-10-08T07:36:15.146Z,3820
2017-10-08T07:36:44.401Z,3655
2017-10-08T07:37:15.263Z,3640
2017-10-08T07:37:44.455Z,3660
2017-10-08T07:38:15.411Z,3643
2017-10-08T07:38:44.498Z,3517
2017-10-08T07:39:15.391Z,3235
2017-10-08T07:39:44.588Z,2813
2017-10-08T07:40:15.459Z,2335
2017-10-08T07:40:44.676Z,1927
2017-10-08T07:41:15.493Z,1723
2017-10-08T07:41:44.672Z,1700
2017-10-08T07:42:15.579Z,1682
2017-10-08T07:42:44.794Z,1607
2017-10-08T07:43:44.817Z,1575
2017-10-08T07:44:15.707Z,1640
2017-10-08T07:44:44.885Z,1922
2017-10-08T07:45:15.796Z,2225
2017-10-08T07:45:44.996Z,2360
2017-10-08T07:46:15.802Z,2488
2017-10-08T07:46:45.007Z,2507
2017-10-08T07:47:16.718Z,2447
2017-10-08T07:47:45.080Z,2355
2017-10-08T07:48:16.142Z,2327
2017-10-08T07:48:45.216Z,2300
2017-10-08T07:49:16.059Z,2327
2017-10-08T07:49:45.216Z,2490
2017-10-08T07:50:16.142Z,2750
2017-10-08T07:50:45.275Z,3148
2017-10-08T07:51:16.183Z,3625
2017-10-08T07:51:45.356Z,4063
2017-10-08T07:52:16.262Z,4220
2017-10-08T07:52:45.420Z,4065
2017-10-08T07:53:16.319Z,3560
2017-10-08T07:53:45.593Z,3193
2017-10-08T07:54:16.391Z,2960
2017-10-08T07:54:45.745Z,2695
2017-10-08T07:55:16.479Z,2423
2017-10-08T07:55:45.693Z,2380
2017-10-08T07:56:16.490Z,2605
2017-10-08T07:56:45.758Z,2807
2017-10-08T07:57:16.599Z,2905
2017-10-08T07:57:45.823Z,3118
2017-10-08T07:58:16.628Z,3245
2017-10-08T07:58:45.931Z,3437
2017-10-08T07:59:16.736Z,3973
2017-10-08T07:59:45.945Z,4412
2017-10-08T08:00:15.986Z,4900
2017-10-08T08:00:46.017Z,5280
2017-10-08T08:01:16.889Z,5453
2017-10-08T08:01:46.067Z,5695
2017-10-08T08:02:16.915Z,5653
2017-10-08T08:02:46.164Z,5267
2017-10-08T08:03:16.952Z,4682
2017-10-08T08:03:46.295Z,4222
2017-10-08T08:04:17.128Z,3962
2017-10-08T08:04:46.278Z,3883
2017-10-08T08:05:17.105Z,4060
2017-10-08T08:05:46.363Z,4238
2017-10-08T08:06:17.175Z,4382
2017-10-08T08:06:46.392Z,4402
2017-10-08T08:07:17.322Z,4277
2017-10-08T08:07:46.511Z,4160
2017-10-08T08:08:17.403Z,4147
2017-10-08T08:08:46.844Z,4213
2017-10-08T08:09:17.470Z,4453
2017-10-08T08:09:46.619Z,4795
2017-10-08T08:10:17.497Z,5162
2017-10-08T08:10:46.715Z,5588
2017-10-08T08:11:17.592Z,6005
2017-10-08T08:11:46.794Z,6420
2017-10-08T08:12:17.670Z,6847
2017-10-08T08:12:46.814Z,7243
2017-10-08T08:13:17.718Z,7558
2017-10-08T08:13:46.946Z,7725
2017-10-08T08:14:17.752Z,7637
2017-10-08T08:14:46.973Z,7298
2017-10-08T08:15:17.829Z,6995
2017-10-08T08:15:47.092Z,6795
2017-10-08T08:16:17.912Z,6662
2017-10-08T08:16:47.102Z,6615
2017-10-08T08:17:17.982Z,6600
2017-10-08T08:17:47.214Z,6605
2017-10-08T08:18:18.025Z,6625
2017-10-08T08:18:47.322Z,6680
2017-10-08T08:19:18.123Z,6788
2017-10-08T08:19:47.328Z,6905
2017-10-08T08:20:18.314Z,6940
2017-10-08T08:20:47.468Z,6853
2017-10-08T08:21:18.322Z,6675
2017-10-08T08:21:47.484Z,6480
2017-10-08T08:22:18.333Z,6358
2017-10-08T08:22:47.578Z,6345
2017-10-08T08:23:18.429Z,6475
2017-10-08T08:23:47.703Z,6677
2017-10-08T08:24:18.530Z,6890
2017-10-08T08:24:47.715Z,7088
2017-10-08T08:25:18.617Z,7232
2017-10-08T08:25:47.770Z,7303
2017-10-08T08:26:18.684Z,7265
2017-10-08T08:26:47.831Z,7185
2017-10-08T08:27:18.746Z,7123
2017-10-08T08:27:47.904Z,7070
2017-10-08T08:28:18.835Z,6982
2017-10-08T08:28:48.053Z,6838
2017-10-08T08:29:18.902Z,6670
2017-10-08T08:29:48.060Z,6545
2017-10-08T08:30:18.938Z,6523
2017-10-08T08:30:48.186Z,6647
2017-10-08T08:31:19.040Z,6923
2017-10-08T08:31:48.190Z,7235
2017-10-08T08:32:19.130Z,7560
2017-10-08T08:32:48.407Z,7907
2017-10-08T08:33:19.137Z,8293
2017-10-08T08:33:48.481Z,8837
2017-10-08T08:34:19.245Z,9583
2017-10-08T08:34:48.393Z,10355
2017-10-08T08:35:19.404Z,10922
2017-10-08T08:35:48.507Z,11140
2017-10-08T08:36:19.395Z,10937
2017-10-08T08:36:48.584Z,10590
2017-10-08T08:37:19.463Z,10267
2017-10-08T08:37:48.655Z,10045
2017-10-08T08:38:19.524Z,9962
2017-10-08T08:38:48.770Z,9893
2017-10-08T08:39:19.594Z,9930
2017-10-08T08:39:48.807Z,10065
2017-10-08T08:40:19.625Z,9907
2017-10-08T08:40:48.891Z,9700
2017-10-08T08:41:19.732Z,9630
2017-10-08T08:41:48.938Z,9790
2017-10-08T08:42:19.783Z,10005
2017-10-08T08:42:48.999Z,10100
2017-10-08T08:43:19.818Z,10157
2017-10-08T08:43:49.136Z,10277
2017-10-08T08:44:19.880Z,10580
2017-10-08T08:44:49.115Z,10847
2017-10-08T08:45:19.942Z,11212
2017-10-08T08:45:49.330Z,11545
2017-10-08T08:46:20.055Z,12557
2017-10-08T08:46:49.274Z,12455
2017-10-08T08:47:20.157Z,12790
2017-10-08T08:47:49.327Z,13067
2017-10-08T08:48:20.156Z,13295
2017-10-08T08:48:49.453Z,13888
2017-10-08T08:49:20.261Z,14110
2017-10-08T08:49:49.417Z,16035
2017-10-08T08:50:20.287Z,16157
2017-10-08T08:50:49.519Z,14437
2017-10-08T08:51:20.359Z,13895
2017-10-08T08:51:49.590Z,14512
2017-10-08T08:52:20.412Z,15000
2017-10-08T08:52:49.665Z,14835
2017-10-08T08:53:20.513Z,14385
2017-10-08T08:53:49.730Z,14340
2017-10-08T08:54:20.582Z,13532
2017-10-08T08:54:49.754Z,13337
2017-10-08T08:55:19.775Z,13478
2017-10-08T08:55:49.813Z,13725
2017-10-08T08:56:20.706Z,14060
2017-10-08T08:56:49.878Z,14625
2017-10-08T08:57:20.747Z,14480
2017-10-08T08:57:49.985Z,15907
2017-10-08T08:58:20.803Z,14900
2017-10-08T08:58:50.068Z,14533
2017-10-08T08:59:20.874Z,11878
2017-10-08T08:59:50.082Z,11340
2017-10-08T09:00:20.944Z,11445
2017-10-08T09:00:50.250Z,11782
2017-10-08T09:01:21.022Z,11915
2017-10-08T09:01:50.210Z,12375
2017-10-08T09:02:21.072Z,12975
2017-10-08T09:02:50.333Z,13543
2017-10-08T09:03:21.207Z,15847
2017-10-08T09:03:52.887Z,21008
2017-10-08T09:04:21.206Z,15943
2017-10-08T09:04:50.497Z,14822
2017-10-08T09:05:21.603Z,16913
2017-10-08T09:05:50.534Z,15920
2017-10-08T09:06:21.393Z,15575
2017-10-08T09:06:50.603Z,32305
2017-10-08T09:07:21.498Z,32168
2017-10-08T09:07:50.710Z,21293
2017-10-08T09:08:21.548Z,18662
2017-10-08T09:08:50.712Z,13210
2017-10-08T09:09:21.660Z,12965
2017-10-08T09:09:50.792Z,13273
2017-10-08T09:10:21.667Z,13298
2017-10-08T09:10:50.846Z,13163
2017-10-08T09:11:21.766Z,13928
2017-10-08T09:11:50.911Z,13478
2017-10-08T09:12:21.837Z,13732
2017-10-08T09:12:50.991Z,13978
2017-10-08T09:13:21.886Z,14272
2017-10-08T09:13:51.042Z,17215
2017-10-08T09:14:21.931Z,13660
2017-10-08T09:14:51.132Z,12545
2017-10-08T09:15:22.011Z,11972
2017-10-08T09:15:51.245Z,12653
2017-10-08T09:16:22.075Z,12487
2017-10-08T09:16:51.362Z,11483
2017-10-08T09:17:22.141Z,13823
2017-10-08T09:17:51.301Z,12755
2017-10-08T09:18:22.246Z,12375
2017-10-08T09:18:51.402Z,13310
2017-10-08T09:19:22.264Z,13865
2017-10-08T09:19:51.473Z,14990
2017-10-08T09:20:22.366Z,24985
2017-10-08T09:20:51.568Z,17020
2017-10-08T09:21:22.428Z,13828
2017-10-08T09:21:51.642Z,14100
2017-10-08T09:22:22.492Z,14858
2017-10-08T09:22:51.703Z,15127
2017-10-08T09:23:22.518Z,15860
2017-10-08T09:23:51.750Z,22082
2017-10-08T09:24:22.618Z,17773
2017-10-08T09:24:51.821Z,15220
2017-10-08T09:25:22.678Z,16858
2017-10-08T09:25:51.864Z,30495
2017-10-08T09:26:22.692Z,20222
2017-10-08T09:26:51.965Z,30800
2017-10-08T09:27:22.815Z,18362
2017-10-08T09:27:51.993Z,18260
2017-10-08T09:28:22.848Z,19337
2017-10-08T09:28:52.090Z,23942
2017-10-08T09:29:22.943Z,12268
2017-10-08T09:29:52.151Z,10975
2017-10-08T09:30:22.953Z,10627
2017-10-08T09:30:52.279Z,9825
2017-10-08T09:31:23.096Z,10160
2017-10-08T09:31:52.280Z,11147
2017-10-08T09:32:23.135Z,10397
2017-10-08T09:32:52.369Z,9440
2017-10-08T09:33:23.197Z,8360
2017-10-08T09:33:52.435Z,7397
2017-10-08T09:34:23.291Z,6645
2017-10-08T09:34:52.476Z,6445
2017-10-08T09:35:23.350Z,6847
2017-10-08T09:35:52.564Z,7667
2017-10-08T09:36:23.445Z,8910
2017-10-08T09:36:52.607Z,10120
2017-10-08T09:37:23.442Z,10730
2017-10-08T09:37:52.695Z,10682
2017-10-08T09:38:23.532Z,11633
2017-10-08T09:38:52.770Z,9952
2017-10-08T09:39:23.625Z,9227
2017-10-08T09:39:52.784Z,8125
2017-10-08T09:40:23.716Z,7030
2017-10-08T09:40:52.834Z,6328
2017-10-08T09:41:23.695Z,6230
2017-10-08T09:41:52.905Z,6917
2017-10-08T09:42:23.775Z,7933
2017-10-08T09:42:52.973Z,8445
2017-10-08T09:43:23.840Z,8683
2017-10-08T09:43:53.057Z,8447
2017-10-08T09:44:23.989Z,8160
2017-10-08T09:44:53.126Z,7712
2017-10-08T09:45:23.992Z,7547
2017-10-08T09:45:53.298Z,7748
2017-10-08T09:46:24.065Z,8125
2017-10-08T09:46:53.330Z,8460
2017-10-08T09:47:24.189Z,8638
2017-10-08T09:47:53.350Z,8505
2017-10-08T09:48:24.197Z,8660
2017-10-08T09:48:53.400Z,8887
2017-10-08T09:49:24.328Z,8968
2017-10-08T09:49:53.471Z,9135
2017-10-08T09:50:24.349Z,9635
2017-10-08T09:50:53.560Z,10225
2017-10-08T09:51:24.468Z,10470
2017-10-08T09:51:53.633Z,10550
2017-10-08T09:52:26.465Z,10687
2017-10-08T09:52:55.556Z,10745
2017-10-08T09:53:25.573Z,10747
2017-10-08T09:53:55.584Z,10907
2017-10-08T09:54:25.719Z,11468
2017-10-08T09:54:55.640Z,12188
2017-10-08T09:55:25.716Z,12347
2017-10-08T09:55:55.792Z,11870
2017-10-08T09:56:27.110Z,10885
2017-10-08T09:56:56.282Z,9550
2017-10-08T09:57:26.295Z,8777
2017-10-08T09:57:56.268Z,7905
2017-10-08T09:58:26.316Z,7243
2017-10-08T09:58:56.374Z,6943
2017-10-08T09:59:31.086Z,6838
2017-10-08T10:00:00.123Z,7035
2017-10-08T10:00:31.984Z,7370
2017-10-08T10:01:01.038Z,7802
2017-10-08T10:01:32.933Z,8585
2017-10-08T10:02:01.974Z,9710
2017-10-08T10:02:33.874Z,10785
2017-10-08T10:03:02.865Z,11620
2017-10-08T10:03:34.764Z,12840
2017-10-08T10:04:03.859Z,18077
2017-10-08T10:04:35.707Z,15262
2017-10-08T10:05:04.727Z,13480
2017-10-08T10:05:36.642Z,12523
2017-10-08T10:06:05.700Z,13262
2017-10-08T10:06:37.550Z,12613
2017-10-08T10:07:06.565Z,12557
2017-10-08T10:07:38.497Z,12430
2017-10-08T10:08:07.617Z,11785
2017-10-08T10:08:39.432Z,10828
2017-10-08T10:09:08.471Z,9605
2017-10-08T10:09:40.306Z,8777
2017-10-08T10:10:09.348Z,7990
2017-10-08T10:10:41.246Z,7033
2017-10-08T10:11:10.308Z,6427
2017-10-08T10:11:42.180Z,5942
2017-10-08T10:12:11.197Z,5498
2017-10-08T10:12:43.101Z,5050
2017-10-08T10:13:12.905Z,4645
2017-10-08T10:13:43.725Z,4320
2017-10-08T10:55:18.518Z,0
2017-10-08T12:07:46.979Z,26945
2017-10-08T12:08:17.995Z,26878
2017-10-08T12:08:47.106Z,26863
2017-10-08T12:09:18.936Z,26765
2017-10-08T12:09:47.962Z,26720
2017-10-08T12:10:19.869Z,26830
2017-10-08T12:10:48.980Z,26743
2017-10-08T12:11:20.830Z,26732
2017-10-08T12:11:49.912Z,26687
2017-10-08T12:12:21.757Z,26732
2017-10-08T12:12:50.829Z,26798
2017-10-08T12:13:22.682Z,26707
2017-10-08T12:13:51.753Z,26745
2017-10-08T12:14:23.553Z,26743
2017-10-08T12:14:52.707Z,26930
2017-10-08T12:15:24.592Z,26968
2017-10-08T12:15:53.611Z,27052
2017-10-08T12:16:25.422Z,9240
2017-10-08T12:16:54.547Z,26835
2017-10-08T12:17:26.402Z,26768
2017-10-08T12:17:55.448Z,26795
2017-10-08T12:18:27.329Z,26720
2017-10-08T12:18:56.402Z,26678
2017-10-08T12:19:28.262Z,26775
2017-10-08T12:19:57.328Z,26785
2017-10-08T12:20:29.188Z,26903
2017-10-08T12:20:58.197Z,26867
2017-10-08T12:21:30.085Z,26743
2017-10-08T12:21:59.100Z,26567
2017-10-08T12:22:30.987Z,26415
2017-10-08T12:23:00.044Z,26285
2017-10-08T12:23:31.971Z,26240
2017-10-08T12:24:00.982Z,26045
2017-10-08T12:24:32.895Z,26000
2017-10-08T12:25:01.921Z,26083
2017-10-08T12:25:33.743Z,26093
2017-10-08T12:26:02.847Z,26177
2017-10-08T12:26:34.703Z,26075
2017-10-08T12:27:03.718Z,26102
2017-10-08T12:27:35.657Z,26055
2017-10-08T12:28:04.690Z,26173
2017-10-08T12:28:36.572Z,26203
2017-10-08T12:42:06.537Z,0
2017-10-08T12:42:35.665Z,27515
2017-10-08T12:43:06.576Z,27397
2017-10-08T12:43:35.863Z,27360
2017-10-08T12:44:06.651Z,27617
2017-10-08T12:44:35.837Z,27640
2017-10-08T12:45:06.704Z,27613
2017-10-08T12:45:35.906Z,27535
2017-10-08T12:46:06.793Z,27360
2017-10-08T12:46:35.967Z,27103
2017-10-08T12:47:06.848Z,26835
2017-10-08T12:47:36.044Z,26602
2017-10-08T12:48:06.906Z,26405
2017-10-08T12:48:36.079Z,26560
2017-10-08T12:49:06.940Z,27023
2017-10-08T12:49:36.171Z,27555
2017-10-08T12:50:07.029Z,28042
2017-10-08T12:50:36.265Z,28530
2017-10-08T12:51:07.059Z,29108
2017-10-08T12:51:36.303Z,29565
2017-10-08T12:52:07.143Z,29850
2017-10-08T12:52:36.312Z,30188
2017-10-08T12:53:07.229Z,30545
2017-10-08T12:53:36.394Z,30805
2017-10-08T12:54:07.302Z,31067
2017-10-08T12:54:36.483Z,31340
2017-10-08T12:55:07.337Z,31192
2017-10-08T12:55:36.561Z,31003
2017-10-08T12:56:07.336Z,30827
2017-10-08T12:56:36.536Z,30797
2017-10-08T12:57:07.449Z,31052
2017-10-08T13:20:43.076Z,0
2017-10-08T13:21:12.234Z,5458
2017-10-08T13:21:43.170Z,5213
2017-10-08T13:22:12.407Z,5557
2017-10-08T13:22:43.201Z,23510
2017-10-08T13:23:12.413Z,9675
2017-10-08T13:23:43.283Z,5842
2017-10-08T13:24:12.536Z,17000
2017-10-08T13:24:43.351Z,23618
2017-10-08T13:25:12.545Z,10193
2017-10-08T13:25:43.348Z,7180
2017-10-08T13:28:12.755Z,7748
2017-10-08T13:28:43.615Z,7410
2017-10-08T13:29:13.097Z,8038
2017-10-08T13:29:43.713Z,8920
2017-10-08T13:30:12.847Z,9590
2017-10-08T13:30:43.719Z,23767
2017-10-08T13:31:13.183Z,26605
2017-10-08T13:31:43.731Z,26460
2017-10-08T13:32:12.950Z,26415
2017-10-08T13:32:43.810Z,17077
2017-10-08T13:33:13.030Z,20558
2017-10-08T13:33:43.886Z,11518
2017-10-08T13:34:13.053Z,25115
2017-10-08T13:34:43.957Z,24613
2017-10-08T13:35:13.119Z,23797
2017-10-08T13:35:43.990Z,23383
2017-10-08T13:36:13.249Z,6565
2017-10-08T13:36:44.076Z,21647
2017-10-08T13:37:13.313Z,22027
2017-10-08T13:37:44.112Z,21968
2017-10-08T13:38:13.363Z,5485
2017-10-08T13:38:44.258Z,5045
2017-10-08T13:39:13.433Z,5132
2017-10-08T13:39:44.294Z,5333
2017-10-08T13:40:13.489Z,21825
2017-10-08T13:40:44.354Z,18617
2017-10-08T13:41:13.520Z,21495
2017-10-08T13:41:44.406Z,8970
2017-10-08T13:42:13.575Z,4427
2017-10-08T13:42:44.457Z,19697
2017-10-08T13:43:13.613Z,18242
2017-10-08T13:43:44.510Z,4622
2017-10-08T13:44:13.679Z,4348
2017-10-08T13:44:44.571Z,4292
2017-10-08T13:45:13.745Z,4652
2017-10-08T13:45:44.651Z,18375
2017-10-08T13:46:13.865Z,17905
2017-10-08T13:46:44.707Z,22225
2017-10-08T13:47:13.851Z,22680
2017-10-08T13:47:44.782Z,23057
2017-10-08T13:48:13.926Z,23282
2017-10-08T13:48:44.823Z,23372
2017-10-08T13:49:13.982Z,23702
2017-10-08T13:49:44.914Z,23443
2017-10-08T13:50:14.052Z,23593
2017-10-08T13:50:44.948Z,23510
2017-10-08T13:51:14.109Z,23243
2017-10-08T13:51:45.034Z,22802
2017-10-08T13:52:14.196Z,22228
2017-10-08T13:52:45.089Z,21785
2017-10-08T13:53:14.227Z,21560
2017-10-08T13:53:45.174Z,5812
2017-10-08T13:54:14.306Z,16460
2017-10-08T13:54:45.203Z,20800
2017-10-08T13:55:14.414Z,20417
2017-10-08T13:55:45.249Z,14410
2017-10-08T13:56:14.416Z,19820
2017-10-08T13:56:45.338Z,19768
2017-10-08T13:57:14.523Z,19620
2017-10-08T13:57:45.386Z,19622
2017-10-08T13:58:14.560Z,9215
2017-10-08T13:58:45.433Z,5155
2017-10-08T13:59:14.652Z,18880
2017-10-08T13:59:45.538Z,17912
2017-10-08T14:00:14.718Z,9440
2017-10-08T14:00:45.570Z,12145
2017-10-08T14:01:14.818Z,15923
2017-10-08T14:01:45.668Z,4145
2017-10-08T14:02:14.868Z,4472
2017-10-08T14:02:45.713Z,13385
2017-10-08T14:03:14.916Z,11700
2017-10-08T14:03:45.859Z,6170
2017-10-08T14:04:14.951Z,18418
2017-10-08T14:04:45.879Z,18400
2017-10-08T14:05:15.074Z,18585
2017-10-08T14:05:45.923Z,18517
2017-10-08T14:06:15.144Z,6220
2017-10-08T14:06:45.998Z,5225
2017-10-08T14:07:15.196Z,4307
2017-10-08T14:07:46.042Z,6725
2017-10-08T14:08:15.347Z,5275
2017-10-08T14:08:46.149Z,4927
2017-10-08T14:09:15.312Z,4897
2017-10-08T14:09:46.213Z,5213
2017-10-08T14:10:15.363Z,18637
2017-10-08T14:10:46.253Z,18600
2017-10-08T14:11:15.393Z,18490
2017-10-08T14:11:46.330Z,18385
2017-10-08T14:12:15.495Z,17413
2017-10-08T14:12:46.368Z,16980
2017-10-08T14:13:15.570Z,16228
2017-10-08T14:13:46.416Z,12227
2017-10-08T14:14:15.651Z,11690
2017-10-08T14:14:46.466Z,5840
2017-10-08T14:15:15.700Z,14060
2017-10-08T14:15:46.540Z,4592
2017-10-08T14:16:15.788Z,3367
2017-10-08T14:16:46.637Z,3262
2017-10-08T14:17:15.843Z,3240
2017-10-08T14:17:46.676Z,3960
2017-10-08T14:18:15.860Z,14660
2017-10-08T14:18:46.706Z,3262
2017-10-08T14:19:15.962Z,15523
2017-10-08T14:19:46.850Z,15433
2017-10-08T14:20:16.017Z,15587
2017-10-08T14:20:46.884Z,3470
2017-10-08T14:21:16.076Z,15557
2017-10-08T14:21:46.896Z,15682
2017-10-08T14:22:16.124Z,15703
2017-10-08T14:22:46.992Z,15745
2017-10-08T14:23:16.189Z,15722
2017-10-08T14:23:47.028Z,15785
2017-10-08T14:24:16.267Z,14567
2017-10-08T14:24:47.126Z,15365
2017-10-08T14:25:16.323Z,15680
2017-10-08T14:25:47.195Z,15710
2017-10-08T14:26:16.360Z,15695
2017-10-08T14:26:47.268Z,15605
2017-10-08T14:27:16.470Z,15452